createdAt,value
2018-06-10T00:00:39.108Z,71.39
2018-06-10T00:03:08.064Z,72.01
2018-06-10T00:05:37.112Z,71.33
2018-06-10T00:08:06.141Z,71.25
2018-06-10T00:10:35.964Z,71.05
2018-06-10T00:13:05.116Z,71.50
2018-06-10T00:15:34.258Z,71.27
2018-06-10T00:18:03.248Z,71.25
2018-06-10T00:20:32.329Z,71.77
2018-06-10T00:23:01.380Z,71.23
2018-06-10T00:25:30.459Z,71.44
2018-06-10T00:27:59.667Z,70.70
2018-06-10T00:30:28.741Z,70.77
2018-06-10T00:32:57.781Z,70.61
2018-06-10T00:35:26.842Z,71.22
2018-06-10T00:37:55.945Z,70.03
2018-06-10T00:40:25.006Z,70.88
2018-06-10T00:42:54.077Z,70.21
2018-06-10T00:45:23.101Z,70.06
2018-06-10T00:47:52.048Z,70.05
2018-06-10T00:50:21.061Z,70.50
2018-06-10T00:52:50.150Z,69.65
2018-06-10T00:55:19.225Z,69.65
2018-06-10T00:57:48.193Z,70.00
2018-06-10T01:00:17.220Z,70.60
2018-06-10T01:02:46.228Z,70.55
2018-06-10T01:05:15.177Z,69.53
2018-06-10T01:07:44.285Z,69.02
2018-06-10T01:10:13.269Z,69.22
2018-06-10T01:12:43.980Z,70.05
2018-06-10T01:15:13.196Z,70.23
2018-06-10T01:17:42.188Z,69.39
2018-06-10T01:20:11.184Z,69.90
2018-06-10T01:22:40.180Z,70.50
2018-06-10T01:25:09.170Z,70.49
2018-06-10T01:27:38.108Z,69.72
2018-06-10T01:30:07.079Z,69.67
2018-06-10T01:32:36.125Z,70.24
2018-06-10T01:35:05.320Z,70.21
2018-06-10T01:37:34.341Z,70.07
2018-06-10T01:40:03.349Z,70.87
2018-06-10T01:42:32.339Z,70.55
2018-06-10T01:45:01.368Z,70.85
2018-06-10T01:47:30.356Z,70.31
2018-06-10T01:49:59.314Z,70.63
2018-06-10T01:52:28.317Z,70.32
2018-06-10T01:54:57.244Z,70.59
2018-06-10T01:57:26.320Z,70.36
2018-06-10T01:59:55.279Z,70.60
2018-06-10T02:02:24.619Z,70.72
2018-06-10T02:04:53.914Z,71.07
2018-06-10T02:07:23.215Z,71.14
2018-06-10T02:09:52.593Z,71.69
2018-06-10T02:12:21.520Z,71.22
2018-06-10T02:14:51.032Z,71.04
2018-06-10T02:17:20.032Z,71.08
2018-06-10T02:19:49.143Z,71.33
2018-06-10T02:22:18.188Z,71.39
2018-06-10T02:24:47.213Z,72.21
2018-06-10T02:27:16.277Z,71.81
2018-06-10T02:29:45.216Z,71.91
2018-06-10T02:32:14.215Z,71.75
2018-06-10T02:34:43.258Z,71.22
2018-06-10T02:37:12.182Z,71.72
2018-06-10T02:39:41.164Z,71.51
2018-06-10T02:42:10.248Z,71.55
2018-06-10T02:44:39.179Z,70.83
2018-06-10T02:47:08.172Z,71.19
2018-06-10T02:49:37.221Z,71.36
2018-06-10T02:52:06.386Z,71.74
2018-06-10T02:54:35.336Z,71.76
2018-06-10T02:57:04.334Z,71.93
2018-06-10T02:59:33.318Z,71.59
2018-06-10T03:02:02.354Z,71.67
2018-06-10T03:04:31.346Z,71.61
2018-06-10T03:07:00.296Z,72.17
2018-06-10T03:09:29.264Z,71.42
2018-06-10T03:11:59.202Z,72.10
2018-06-10T03:14:28.137Z,71.89
2018-06-10T03:16:57.220Z,72.39
2018-06-10T03:19:26.212Z,72.63
2018-06-10T03:21:55.143Z,71.82
2018-06-10T03:24:24.244Z,71.53
2018-06-10T03:26:53.236Z,71.41
2018-06-10T03:29:22.169Z,71.94
2018-06-10T03:31:51.173Z,71.25
2018-06-10T03:34:20.153Z,71.93
2018-06-10T03:36:49.304Z,70.45
2018-06-10T03:39:18.241Z,70.84
2018-06-10T03:41:47.200Z,71.67
2018-06-10T03:44:16.147Z,71.58
2018-06-10T03:46:45.133Z,71.82
2018-06-10T03:49:14.208Z,71.53
2018-06-10T03:51:43.190Z,71.55
2018-06-10T03:54:12.245Z,70.59
2018-06-10T03:56:41.203Z,70.70
2018-06-10T03:59:10.121Z,70.37
2018-06-10T04:01:39.173Z,70.29
2018-06-10T04:04:08.192Z,70.05
2018-06-10T04:06:37.123Z,70.79
2018-06-10T04:09:07.581Z,70.84
2018-06-10T04:11:36.692Z,70.83
2018-06-10T04:14:05.701Z,69.67
2018-06-10T04:16:34.644Z,69.51
2018-06-10T04:19:03.718Z,70.00
2018-06-10T04:21:32.748Z,69.05
2018-06-10T04:24:01.846Z,69.26
2018-06-10T04:26:30.868Z,69.10
2018-06-10T04:28:59.784Z,68.45
2018-06-10T04:31:28.700Z,68.50
2018-06-10T04:33:57.680Z,68.65
2018-06-10T04:36:26.592Z,68.04
2018-06-10T04:38:55.628Z,68.42
2018-06-10T04:41:24.643Z,66.67
2018-06-10T04:43:53.628Z,66.24
2018-06-10T04:46:22.540Z,67.56
2018-06-10T04:48:51.607Z,68.15
2018-06-10T04:51:20.789Z,67.35
2018-06-10T04:53:50.142Z,68.23
2018-06-10T04:56:19.132Z,67.64
2018-06-10T04:58:48.052Z,66.82
2018-06-10T05:01:16.960Z,66.92
2018-06-10T05:03:45.923Z,67.41
2018-06-10T05:06:14.875Z,67.19
2018-06-10T05:08:43.788Z,68.00
2018-06-10T05:11:12.757Z,68.89
2018-06-10T05:13:41.784Z,67.39
2018-06-10T05:16:10.836Z,66.74
2018-06-10T05:18:39.766Z,66.28
2018-06-10T05:21:08.740Z,65.97
2018-06-10T05:23:37.735Z,65.11
2018-06-10T05:26:06.713Z,65.59
2018-06-10T05:28:35.699Z,64.96
2018-06-10T05:31:04.704Z,64.42
2018-06-10T05:33:33.716Z,64.02
2018-06-10T05:36:02.768Z,63.35
2018-06-10T05:38:31.889Z,63.26
2018-06-10T05:41:01.017Z,63.47
2018-06-10T05:43:30.009Z,63.09
2018-06-10T05:45:59.100Z,62.73
2018-06-10T05:48:28.124Z,61.40
2018-06-10T05:50:57.097Z,62.63
2018-06-10T05:53:26.102Z,62.91
2018-06-10T05:55:55.191Z,61.62
2018-06-10T05:58:24.780Z,59.77
2018-06-10T06:00:53.845Z,58.88
2018-06-10T06:03:22.768Z,59.99
2018-06-10T06:05:51.837Z,59.21
2018-06-10T06:08:20.846Z,58.04
2018-06-10T06:10:49.832Z,58.67
2018-06-10T06:13:18.854Z,60.50
2018-06-10T06:15:47.913Z,60.76
2018-06-10T06:18:17.008Z,61.12
2018-06-10T06:20:45.933Z,62.29
2018-06-10T06:23:14.932Z,61.76
2018-06-10T06:25:43.932Z,62.01
2018-06-10T06:28:12.977Z,61.27
2018-06-10T06:30:41.984Z,60.08
2018-06-10T06:33:10.971Z,61.80
2018-06-10T06:35:40.049Z,61.81
2018-06-10T06:38:09.240Z,60.57
2018-06-10T06:40:38.163Z,60.87
2018-06-10T06:43:07.414Z,61.66
2018-06-10T06:45:36.916Z,62.59
2018-06-10T06:48:05.917Z,61.04
2018-06-10T06:50:34.888Z,61.80
2018-06-10T06:53:03.904Z,62.72
2018-06-10T06:55:32.939Z,63.66
2018-06-10T06:58:02.345Z,63.88
2018-06-10T07:00:31.396Z,63.14
2018-06-10T07:03:00.384Z,64.08
2018-06-10T07:05:29.340Z,64.29
2018-06-10T07:07:58.414Z,64.27
2018-06-10T07:10:27.363Z,64.35
2018-06-10T07:12:56.292Z,64.84
2018-06-10T07:15:25.225Z,64.74
2018-06-10T07:17:54.199Z,64.70
2018-06-10T07:20:23.264Z,63.98
2018-06-10T07:22:52.187Z,64.08
2018-06-10T07:25:21.133Z,63.88
2018-06-10T07:27:50.209Z,64.06
2018-06-10T07:30:19.200Z,64.75
2018-06-10T07:32:48.292Z,64.51
2018-06-10T07:35:17.280Z,65.37
2018-06-10T07:37:46.277Z,65.25
2018-06-10T07:40:15.352Z,64.66
2018-06-10T07:42:44.353Z,64.38
2018-06-10T07:45:13.465Z,64.85
2018-06-10T07:47:42.501Z,65.09
2018-06-10T07:50:11.500Z,63.90
2018-06-10T07:52:40.508Z,63.17
2018-06-10T07:55:09.533Z,63.43
2018-06-10T07:57:38.532Z,62.41
2018-06-10T08:00:07.587Z,61.31
2018-06-10T08:02:36.577Z,61.47
2018-06-10T08:05:05.680Z,61.14
2018-06-10T08:07:34.705Z,60.13
2018-06-10T08:10:03.792Z,61.18
2018-06-10T08:12:32.941Z,60.26
2018-06-10T08:15:02.068Z,60.35
2018-06-10T08:17:31.030Z,61.15
2018-06-10T08:20:00.026Z,61.12
2018-06-10T08:22:29.043Z,60.16
2018-06-10T08:24:58.086Z,59.66
2018-06-10T08:27:27.096Z,59.23
2018-06-10T08:29:56.289Z,59.05
2018-06-10T08:32:25.243Z,57.72
2018-06-10T08:34:54.348Z,58.45
2018-06-10T08:37:23.379Z,58.11
2018-06-10T08:39:52.292Z,58.29
2018-06-10T08:42:21.992Z,57.83
2018-06-10T08:44:50.976Z,57.75
2018-06-10T08:47:20.101Z,58.00
2018-06-10T08:49:49.044Z,57.13
2018-06-10T08:52:17.972Z,58.88
2018-06-10T08:54:46.962Z,57.94
2018-06-10T08:57:15.949Z,56.85
2018-06-10T08:59:44.977Z,56.46
2018-06-10T09:02:13.976Z,57.32
2018-06-10T09:04:43.324Z,57.90
2018-06-10T09:07:12.263Z,56.49
2018-06-10T09:09:41.278Z,55.00
2018-06-10T09:12:10.368Z,55.17
2018-06-10T09:14:39.355Z,56.52
2018-06-10T09:17:09.445Z,54.71
2018-06-10T09:19:38.676Z,53.04
2018-06-10T09:22:07.616Z,52.14
2018-06-10T09:24:36.668Z,51.41
2018-06-10T09:27:06.233Z,48.05
2018-06-10T09:29:35.296Z,48.77
2018-06-10T09:32:04.345Z,48.98
2018-06-10T09:34:33.360Z,51.33
2018-06-10T09:37:02.505Z,52.73
2018-06-10T09:39:32.627Z,52.90
2018-06-10T09:42:01.637Z,51.66
2018-06-10T09:44:30.645Z,51.29
2018-06-10T09:46:59.644Z,49.80
2018-06-10T09:49:28.728Z,50.14
2018-06-10T09:51:57.718Z,49.44
2018-06-10T09:54:26.656Z,49.37
2018-06-10T09:56:55.683Z,48.59
2018-06-10T09:59:24.764Z,46.16
2018-06-10T10:01:53.744Z,46.43
2018-06-10T10:04:22.732Z,46.91
2018-06-10T10:06:51.671Z,47.24
2018-06-10T10:09:20.616Z,49.94
2018-06-10T10:11:49.540Z,49.42
2018-06-10T10:14:18.516Z,48.22
2018-06-10T10:16:47.564Z,47.51
2018-06-10T10:19:16.672Z,48.63
2018-06-10T10:21:45.713Z,49.18
2018-06-10T10:24:15.046Z,49.00
2018-06-10T10:26:44.040Z,49.04
2018-06-10T10:29:13.032Z,49.50
2018-06-10T10:31:41.980Z,48.92
2018-06-10T10:34:10.962Z,47.32
2018-06-10T10:36:40.010Z,47.76
2018-06-10T10:39:09.092Z,48.09
2018-06-10T10:41:38.026Z,46.63
2018-06-10T10:44:06.983Z,46.78
2018-06-10T10:46:35.932Z,44.85
2018-06-10T10:49:04.888Z,44.79
2018-06-10T10:51:33.867Z,44.35
2018-06-10T10:54:02.880Z,43.66
2018-06-10T10:56:31.873Z,42.92
2018-06-10T10:59:00.853Z,44.28
2018-06-10T11:01:29.848Z,43.05
2018-06-10T11:03:58.900Z,44.15
2018-06-10T11:06:27.872Z,42.87
2018-06-10T11:08:56.956Z,42.58
2018-06-10T11:11:25.977Z,40.83
2018-06-10T11:13:54.928Z,40.49
2018-06-10T11:16:23.988Z,42.24
2018-06-10T11:18:53.003Z,40.99
2018-06-10T11:21:21.989Z,40.93
2018-06-10T11:23:50.984Z,40.79
2018-06-10T11:26:19.923Z,40.31
2018-06-10T11:28:48.912Z,40.56
2018-06-10T11:31:17.949Z,40.26
2018-06-10T11:33:46.961Z,39.55
2018-06-10T11:36:15.961Z,39.89
2018-06-10T11:38:44.892Z,39.13
2018-06-10T11:41:13.880Z,40.10
2018-06-10T11:43:42.864Z,41.83
2018-06-10T11:46:11.921Z,41.48
2018-06-10T11:48:40.937Z,40.25
2018-06-10T11:51:09.873Z,39.51
2018-06-10T11:53:38.843Z,38.96
2018-06-10T11:56:07.819Z,38.13
2018-06-10T11:58:36.797Z,37.15
2018-06-10T12:01:05.802Z,37.47
2018-06-10T12:03:34.748Z,39.42
2018-06-10T12:06:03.835Z,40.39
2018-06-10T12:08:32.830Z,39.34
2018-06-10T12:11:01.757Z,39.15
2018-06-10T12:13:30.751Z,39.29
2018-06-10T12:16:00.070Z,39.94
2018-06-10T12:18:29.125Z,39.61
2018-06-10T12:20:58.117Z,39.75
2018-06-10T12:23:27.052Z,38.75
2018-06-10T12:25:56.057Z,36.94
2018-06-10T12:28:25.064Z,39.28
2018-06-10T12:30:54.100Z,37.72
2018-06-10T12:33:23.106Z,37.86
2018-06-10T12:35:52.103Z,38.45
2018-06-10T12:38:21.048Z,38.56
2018-06-10T12:40:50.089Z,38.73
2018-06-10T12:43:19.132Z,38.95
2018-06-10T12:45:48.124Z,39.13
2018-06-10T12:48:17.204Z,37.31
2018-06-10T12:50:46.151Z,40.19
2018-06-10T12:53:15.071Z,39.54
2018-06-10T12:55:44.137Z,37.48
2018-06-10T12:58:13.070Z,37.74
2018-06-10T13:00:42.056Z,39.14
2018-06-10T13:03:11.033Z,38.46
2018-06-10T13:05:40.089Z,37.85
2018-06-10T13:08:09.184Z,38.55
2018-06-10T13:10:38.216Z,37.57
2018-06-10T13:13:07.204Z,37.63
2018-06-10T13:15:36.151Z,38.15
2018-06-10T13:18:05.348Z,38.77
2018-06-10T13:20:34.327Z,38.53
2018-06-10T13:23:03.442Z,37.53
2018-06-10T13:25:32.372Z,38.41
2018-06-10T13:28:01.401Z,38.34
2018-06-10T13:30:30.356Z,38.71
2018-06-10T13:32:59.335Z,38.38
2018-06-10T13:35:28.336Z,37.24
2018-06-10T13:37:57.348Z,37.61
2018-06-10T13:40:26.476Z,37.92
2018-06-10T13:42:56.788Z,38.31
2018-06-10T13:45:25.853Z,37.00
2018-06-10T13:47:54.884Z,37.80
2018-06-10T13:50:23.835Z,38.23
2018-06-10T13:52:52.789Z,37.16
2018-06-10T13:55:21.909Z,38.30
2018-06-10T13:57:50.899Z,37.13
2018-06-10T14:00:19.823Z,38.40
2018-06-10T14:02:49.027Z,38.48
2018-06-10T14:05:17.968Z,37.75
2018-06-10T14:07:47.035Z,40.44
2018-06-10T14:10:16.175Z,37.87
2018-06-10T14:12:45.188Z,37.99
2018-06-10T14:15:14.603Z,37.65
2018-06-10T14:17:43.588Z,37.43
2018-06-10T14:20:12.548Z,38.04
2018-06-10T14:22:41.602Z,37.75
2018-06-10T14:25:10.707Z,37.46
2018-06-10T14:27:39.696Z,37.07
2018-06-10T14:30:08.772Z,38.49
2018-06-10T14:32:37.764Z,38.31
2018-06-10T14:35:06.876Z,37.94
2018-06-10T14:37:35.884Z,37.83
2018-06-10T14:40:05.089Z,37.61
2018-06-10T14:42:34.175Z,38.34
2018-06-10T14:45:03.124Z,38.25
2018-06-10T14:47:32.153Z,37.84
2018-06-10T14:50:01.076Z,37.21
2018-06-10T14:52:30.000Z,38.12
2018-06-10T14:54:59.098Z,38.68
2018-06-10T14:57:28.081Z,39.11
2018-06-10T14:59:57.228Z,38.39
2018-06-10T15:02:26.272Z,39.46
2018-06-10T15:04:55.204Z,37.88
2018-06-10T15:07:24.192Z,37.60
2018-06-10T15:09:53.181Z,37.75
2018-06-10T15:12:22.273Z,35.93
2018-06-10T15:14:51.361Z,36.04
2018-06-10T15:17:20.632Z,36.90
2018-06-10T15:19:49.576Z,36.74
2018-06-10T15:22:18.564Z,36.75
2018-06-10T15:24:47.593Z,37.77
2018-06-10T15:27:16.511Z,35.05
2018-06-10T15:29:45.617Z,37.38
2018-06-10T15:32:14.669Z,34.73
2018-06-10T15:34:43.612Z,34.47
2018-06-10T15:37:12.835Z,33.61
2018-06-10T15:39:41.762Z,34.12
2018-06-10T15:42:10.680Z,33.53
2018-06-10T15:44:39.668Z,33.34
2018-06-10T15:47:08.788Z,33.81
2018-06-10T15:49:38.022Z,33.95
2018-06-10T15:52:07.150Z,34.17
2018-06-10T15:54:36.107Z,34.75
2018-06-10T15:57:05.113Z,35.38
2018-06-10T15:59:34.081Z,34.76
2018-06-10T16:02:03.129Z,35.17
2018-06-10T16:04:32.118Z,35.61
2018-06-10T16:07:01.045Z,37.13
2018-06-10T16:09:30.063Z,37.34
2018-06-10T16:11:59.136Z,38.12
2018-06-10T16:14:28.144Z,37.87
2018-06-10T16:16:57.173Z,37.65
2018-06-10T16:19:26.204Z,37.77
2018-06-10T16:21:55.188Z,38.30
2018-06-10T16:24:24.492Z,38.47
2018-06-10T16:26:53.540Z,39.07
2018-06-10T16:29:22.536Z,40.32
2018-06-10T16:31:51.845Z,39.73
2018-06-10T16:34:20.844Z,40.38
2018-06-10T16:36:49.848Z,40.65
2018-06-10T16:39:18.872Z,41.10
2018-06-10T16:41:47.856Z,41.89
2018-06-10T16:44:16.986Z,41.58
2018-06-10T16:46:45.994Z,42.85
2018-06-10T16:49:14.998Z,43.33
2018-06-10T16:51:43.980Z,43.26
2018-06-10T16:54:12.907Z,44.72
2018-06-10T16:56:41.844Z,45.20
2018-06-10T16:59:10.856Z,45.45
2018-06-10T17:01:39.907Z,45.12
2018-06-10T17:04:08.963Z,44.35
2018-06-10T17:06:37.917Z,44.99
2018-06-10T17:09:09.180Z,47.55
2018-06-10T17:11:38.328Z,48.00
2018-06-10T17:14:07.318Z,47.62
2018-06-10T17:16:36.679Z,47.84
2018-06-10T17:19:05.668Z,49.65
2018-06-10T17:21:34.685Z,49.38
2018-06-10T17:24:03.731Z,48.34
2018-06-10T17:26:32.725Z,48.97
2018-06-10T17:29:01.732Z,48.91
2018-06-10T17:31:30.681Z,49.83
2018-06-10T17:33:59.601Z,49.49
2018-06-10T17:36:28.536Z,50.25
2018-06-10T17:38:57.597Z,50.00
2018-06-10T17:41:26.592Z,51.40
2018-06-10T17:43:55.583Z,50.90
2018-06-10T17:46:24.608Z,51.40
2018-06-10T17:48:53.555Z,52.56
2018-06-10T17:51:22.591Z,52.67
2018-06-10T17:53:51.795Z,53.05
2018-06-10T17:56:20.748Z,53.11
2018-06-10T17:58:49.803Z,53.01
2018-06-10T18:01:18.870Z,53.11
2018-06-10T18:03:47.929Z,53.62
2018-06-10T18:06:16.964Z,54.22
2018-06-10T18:08:45.980Z,55.28
2018-06-10T18:11:15.110Z,54.99
2018-06-10T18:13:44.112Z,54.58
2018-06-10T18:16:13.059Z,55.69
2018-06-10T18:18:42.245Z,56.38
2018-06-10T18:21:11.341Z,57.08
2018-06-10T18:23:40.405Z,56.62
2018-06-10T18:26:09.451Z,57.05
2018-06-10T18:28:38.388Z,57.35
2018-06-10T18:31:07.348Z,56.71
2018-06-10T18:33:36.352Z,56.75
2018-06-10T18:36:05.495Z,57.15
2018-06-10T18:38:34.481Z,56.21
2018-06-10T18:41:03.537Z,56.57
2018-06-10T18:43:32.497Z,59.27
2018-06-10T18:46:01.533Z,60.68
2018-06-10T18:48:30.584Z,60.64
2018-06-10T18:50:59.512Z,61.47
2018-06-10T18:53:28.501Z,60.55
2018-06-10T18:55:57.578Z,60.54
2018-06-10T18:58:26.513Z,59.91
2018-06-10T19:00:55.504Z,59.21
2018-06-10T19:03:24.499Z,60.58
2018-06-10T19:05:53.541Z,60.21
2018-06-10T19:08:22.685Z,60.27
2018-06-10T19:10:51.641Z,59.28
2018-06-10T19:13:20.745Z,60.07
2018-06-10T19:15:49.708Z,61.52
2018-06-10T19:18:18.639Z,62.87
2018-06-10T19:20:47.740Z,63.05
2018-06-10T19:23:16.672Z,63.00
2018-06-10T19:25:45.748Z,63.29
2018-06-10T19:28:14.801Z,63.88
2018-06-10T19:30:43.740Z,63.54
2018-06-10T19:33:12.741Z,64.28
2018-06-10T19:35:41.737Z,63.64
2018-06-10T19:38:10.853Z,64.37
2018-06-10T19:40:39.852Z,64.53
2018-06-10T19:43:08.781Z,64.06
2018-06-10T19:45:37.780Z,64.09
2018-06-10T19:48:06.805Z,63.54
2018-06-10T19:50:35.812Z,64.14
2018-06-10T19:53:04.872Z,65.81
2018-06-10T19:55:33.916Z,66.52
2018-06-10T19:58:02.901Z,66.44
2018-06-10T20:00:31.893Z,67.59
2018-06-10T20:03:00.945Z,67.62
2018-06-10T20:05:29.884Z,66.58
2018-06-10T20:07:58.876Z,66.87
2018-06-10T20:10:27.868Z,66.34
2018-06-10T20:12:56.846Z,66.34
2018-06-10T20:15:26.133Z,65.27
2018-06-10T20:17:55.208Z,65.55
2018-06-10T20:20:24.154Z,66.10
2018-06-10T20:22:53.162Z,68.00
2018-06-10T20:25:22.133Z,67.74
2018-06-10T20:27:51.124Z,67.93
2018-06-10T20:30:20.145Z,66.91
2018-06-10T20:32:49.182Z,66.46
2018-06-10T20:35:18.488Z,66.91
2018-06-10T20:37:47.472Z,67.23
2018-06-10T20:40:16.464Z,66.89
2018-06-10T20:42:45.400Z,66.99
2018-06-10T20:45:14.344Z,67.19
2018-06-10T20:47:43.336Z,67.89
2018-06-10T20:50:12.389Z,66.83
2018-06-10T20:52:41.368Z,67.06
2018-06-10T20:55:10.417Z,67.36
2018-06-10T20:57:39.409Z,66.95
2018-06-10T21:00:08.485Z,67.33
2018-06-10T21:02:37.424Z,67.95
2018-06-10T21:05:06.538Z,68.67
2018-06-10T21:07:35.473Z,68.40
2018-06-10T21:10:04.504Z,68.55
2018-06-10T21:12:33.504Z,69.46
2018-06-10T21:15:02.432Z,69.85
2018-06-10T21:17:31.473Z,70.21
2018-06-10T21:20:00.404Z,70.10
2018-06-10T21:22:29.348Z,69.08
2018-06-10T21:24:58.292Z,68.98
2018-06-10T21:27:27.220Z,69.12
2018-06-10T21:29:56.272Z,68.38
2018-06-10T21:32:25.196Z,68.49
2018-06-10T21:34:54.233Z,68.49
2018-06-10T21:37:23.159Z,68.51
2018-06-10T21:39:52.086Z,69.07
2018-06-10T21:42:21.189Z,69.14
2018-06-10T21:44:50.600Z,69.73
2018-06-10T21:47:20.155Z,69.47
2018-06-10T21:49:49.140Z,70.19
2018-06-10T21:52:18.080Z,69.59
2018-06-10T21:54:47.112Z,69.85
2018-06-10T21:57:16.128Z,70.99
2018-06-10T21:59:45.157Z,70.14
2018-06-10T22:02:14.169Z,70.43
2018-06-10T22:04:43.440Z,70.00
2018-06-10T22:07:12.479Z,70.63
2018-06-10T22:09:41.698Z,70.30
2018-06-10T22:12:10.750Z,71.04
2018-06-10T22:14:39.853Z,70.46
2018-06-10T22:17:08.844Z,69.82
2018-06-10T22:19:37.933Z,69.11
2018-06-10T22:22:07.125Z,69.61
2018-06-10T22:24:36.124Z,70.34
2018-06-10T22:27:05.136Z,70.73
2018-06-10T22:29:34.128Z,70.65
2018-06-10T22:32:03.275Z,71.25
2018-06-10T22:34:32.227Z,71.32
2018-06-10T22:37:01.198Z,70.87
2018-06-10T22:39:30.184Z,70.46
2018-06-10T22:41:59.109Z,69.90
2018-06-10T22:44:28.277Z,71.07
2018-06-10T22:46:57.212Z,71.35
2018-06-10T22:49:26.168Z,71.76
2018-06-10T22:51:55.156Z,71.10
2018-06-10T22:54:47.483Z,70.49
2018-06-10T22:57:16.860Z,71.49
2018-06-10T22:59:46.284Z,71.71
2018-06-10T23:02:15.568Z,71.26
2018-06-10T23:04:44.846Z,71.74
2018-06-10T23:07:14.192Z,71.75
2018-06-10T23:09:43.424Z,72.66
2018-06-10T23:12:12.352Z,72.95
2018-06-10T23:14:41.307Z,72.29
2018-06-10T23:17:10.286Z,71.41
2018-06-10T23:19:39.389Z,71.17
2018-06-10T23:22:08.364Z,71.92
2018-06-10T23:24:37.296Z,71.23
2018-06-10T23:27:06.294Z,71.59
2018-06-10T23:29:35.212Z,71.37
2018-06-10T23:32:04.457Z,71.79
2018-06-10T23:34:33.444Z,72.29
2018-06-10T23:37:02.372Z,72.44
2018-06-10T23:39:31.461Z,73.81
2018-06-10T23:42:00.419Z,73.57
2018-06-10T23:44:29.401Z,74.40
2018-06-10T23:46:58.339Z,75.37
2018-06-10T23:49:27.324Z,75.23
2018-06-10T23:51:56.262Z,75.99
2018-06-10T23:54:25.201Z,75.61
2018-06-10T23:56:54.236Z,75.79
2018-06-10T23:59:23.164Z,76.72
